Time;durP1;ratioP1;P1;durP2;ratioP2;P2;SDS_P1;SDS_P2;PMS_P1;PMS_P2;Temp;Humidity;BMP_temperature;BMP_pressure;BME280_temperature;BME280_humidity;BME280_pressure;Samples;Min_cycle;Max_cycle;Signal;HPM_P1;HPM_P2
2021/09/23 00:02:14;;;;;;;19.50;10.90;;;;;;;15.87;52.32;102236.00;4970755;28;114192;-63
2021/09/23 00:04:43;;;;;;;16.90;10.02;;;;;;;15.85;52.49;102221.84;4968766;28;124067;-63
2021/09/23 00:07:10;;;;;;;17.55;10.45;;;;;;;15.84;52.46;102220.09;4955379;28;122696;-63
2021/09/23 00:09:38;;;;;;;20.38;10.95;;;;;;;15.82;52.31;102206.81;4971335;28;114422;-63
2021/09/23 00:12:05;;;;;;;20.20;10.48;;;;;;;15.81;52.38;102204.22;4970894;28;114440;-63
2021/09/23 00:14:33;;;;;;;20.95;11.02;;;;;;;15.79;52.31;102195.41;4941604;28;123710;-64
2021/09/23 00:17:00;;;;;;;19.88;10.93;;;;;;;15.76;52.52;102197.28;4947829;28;123237;-63
2021/09/23 00:19:27;;;;;;;19.98;11.23;;;;;;;15.74;52.48;102188.44;4970260;28;115276;-63
2021/09/23 00:21:54;;;;;;;18.40;11.05;;;;;;;15.72;52.63;102179.59;4967882;28;114433;-63
2021/09/23 00:24:22;;;;;;;19.90;11.27;;;;;;;15.70;52.55;102180.63;4964444;28;124084;-63
2021/09/23 00:26:49;;;;;;;19.83;11.30;;;;;;;15.67;52.65;102170.97;4967292;28;123815;-63
2021/09/23 00:29:16;;;;;;;19.20;11.45;;;;;;;15.66;52.61;102174.56;4947366;28;113213;-64
2021/09/23 00:31:43;;;;;;;19.80;11.27;;;;;;;15.64;52.81;102164.88;4945459;28;112858;-63
2021/09/23 00:34:10;;;;;;;20.25;10.85;;;;;;;15.64;52.81;102170.22;4948229;28;123153;-63
2021/09/23 00:36:38;;;;;;;17.73;11.55;;;;;;;15.62;52.81;102170.28;4953411;28;122893;-64
2021/09/23 00:39:05;;;;;;;22.88;11.80;;;;;;;15.62;52.75;102167.63;4969334;28;114932;-63
2021/09/23 00:41:32;;;;;;;20.27;11.02;;;;;;;15.63;52.78;102166.66;4966930;28;114364;-63
2021/09/23 00:44:13;;;;;;;20.13;11.85;;;;;;;15.61;52.73;102165.88;4950140;28;123281;-63
2021/09/23 00:46:40;;;;;;;18.65;11.82;;;;;;;15.62;52.93;102167.63;4948802;28;123024;-64
2021/09/23 00:49:07;;;;;;;20.23;12.05;;;;;;;15.61;52.84;102154.34;4952131;28;113169;-63
2021/09/23 00:51:35;;;;;;;20.13;11.65;;;;;;;15.61;52.94;102160.53;4966693;28;114723;-63
2021/09/23 00:54:03;;;;;;;19.02;11.55;;;;;;;15.61;53.05;102165.88;4959885;28;124198;-63
2021/09/23 00:56:30;;;;;;;20.65;11.57;;;;;;;15.62;52.80;102162.28;4968618;28;124066;-64
2021/09/23 00:58:57;;;;;;;20.27;12.40;;;;;;;15.62;52.97;102148.94;4952665;28;113816;-63
2021/09/23 01:01:25;;;;;;;20.63;12.65;;;;;;;15.62;52.89;102151.59;4947595;28;113097;-64
2021/09/23 01:03:54;;;;;;;21.52;12.52;;;;;;;15.62;52.82;102156.94;4946157;28;123224;-63
2021/09/23 01:06:22;;;;;;;20.65;11.93;;;;;;;15.62;52.85;102161.41;4954651;28;123135;-63
2021/09/23 01:08:59;;;;;;;20.17;12.52;;;;;;;15.59;52.89;102162.41;4962304;28;115992;-63
2021/09/23 01:11:28;;;;;;;20.55;11.98;;;;;;;15.56;52.90;102167.91;4952844;28;114441;-62
2021/09/23 01:13:56;;;;;;;19.48;11.88;;;;;;;15.54;52.71;102169.78;4951893;28;123274;-62
2021/09/23 01:16:47;;;;;;;21.95;11.63;;;;;;;15.49;52.81;102156.63;4936501;28;123931;-62
2021/09/23 01:19:25;;;;;;;18.98;11.90;;;;;;;15.46;52.73;102145.19;4952264;28;113386;-62
2021/09/23 01:21:53;;;;;;;19.10;11.48;;;;;;;15.42;52.86;102148.94;4951566;28;113274;-62
2021/09/23 01:24:21;;;;;;;21.67;12.13;;;;;;;15.39;52.83;102144.63;4953993;28;123647;-62
2021/09/23 01:26:52;;;;;;;21.02;12.05;;;;;;;15.37;52.88;102157.19;4948528;28;123202;-62
2021/09/23 01:29:27;;;;;;;23.33;12.00;;;;;;;15.33;52.94;102151.09;4948683;28;113388;-62
2021/09/23 01:32:01;;;;;;;21.90;11.98;;;;;;;15.32;53.00;102149.34;4952446;28;113133;-62
2021/09/23 01:34:30;;;;;;;21.40;12.23;;;;;;;15.31;53.16;102136.06;4951709;28;123782;-62
2021/09/23 01:36:59;;;;;;;21.58;11.90;;;;;;;15.28;53.27;102131.75;4965162;28;123081;-62
2021/09/23 01:39:27;;;;;;;22.88;13.32;;;;;;;15.27;53.26;102130.00;4941155;28;113359;-62
2021/09/23 01:42:02;;;;;;;23.42;13.10;;;;;;;15.26;53.25;102127.41;4941783;28;116505;-62
2021/09/23 01:44:32;;;;;;;22.40;12.70;;;;;;;15.24;53.17;102119.47;4951067;28;123278;-61
2021/09/23 01:47:03;;;;;;;19.33;12.25;;;;;;;15.22;53.21;102115.13;4957266;28;124157;-62
2021/09/23 01:49:36;;;;;;;23.50;11.93;;;;;;;15.18;53.28;102107.28;4941197;28;112553;-62
2021/09/23 01:52:04;;;;;;;20.30;12.32;;;;;;;15.16;53.33;102105.59;4941883;28;113072;-62
2021/09/23 01:54:31;;;;;;;24.02;12.65;;;;;;;15.14;53.27;102102.13;4943340;28;123728;-62
2021/09/23 01:56:59;;;;;;;24.77;12.48;;;;;;;15.12;53.36;102104.00;4960022;28;124991;-62
2021/09/23 01:59:26;;;;;;;22.50;12.40;;;;;;;15.10;53.47;102095.19;4943887;28;114546;-62
2021/09/23 02:02:02;;;;;;;23.48;12.48;;;;;;;15.09;53.55;102088.13;4946101;28;117458;-64
2021/09/23 02:04:31;;;;;;;22.23;13.07;;;;;;;15.06;53.58;102082.91;4950591;28;123384;-63
2021/09/23 02:06:58;;;;;;;22.15;12.35;;;;;;;15.03;53.58;102078.59;4940970;28;123606;-63
2021/09/23 02:09:25;;;;;;;24.55;12.90;;;;;;;15.02;53.58;102070.66;4942664;28;114161;-63
2021/09/23 02:11:53;;;;;;;23.83;12.43;;;;;;;14.98;53.71;102081.44;4953388;28;112989;-63
2021/09/23 02:14:21;;;;;;;20.05;11.98;;;;;;;14.95;53.61;102076.22;4957395;28;123888;-63
2021/09/23 02:16:48;;;;;;;24.00;12.75;;;;;;;14.94;53.60;102074.53;4972394;28;123973;-63
2021/09/23 02:19:43;;;;;;;20.67;12.18;;;;;;;14.91;53.73;102071.97;4955429;28;113723;-63
2021/09/23 02:22:11;;;;;;;20.33;11.73;;;;;;;14.89;53.74;102071.19;4950500;28;113313;-63
2021/09/23 02:24:40;;;;;;;21.90;12.40;;;;;;;14.88;53.81;102073.91;4968759;28;123205;-63
2021/09/23 02:27:08;;;;;;;21.80;12.18;;;;;;;14.85;53.84;102064.25;4969866;28;123889;-63
2021/09/23 02:29:36;;;;;;;22.75;12.52;;;;;;;14.83;53.94;102066.13;4953687;28;113452;-63
2021/09/23 02:32:05;;;;;;;22.80;12.45;;;;;;;14.83;54.09;102063.44;4941619;28;113250;-63
2021/09/23 02:34:32;;;;;;;22.88;12.40;;;;;;;14.82;54.03;102064.38;4956474;28;123190;-63
2021/09/23 02:37:00;;;;;;;21.55;11.50;;;;;;;14.82;54.07;102069.69;4942663;28;122690;-63
2021/09/23 02:39:27;;;;;;;20.92;12.50;;;;;;;14.81;53.96;102072.47;4954441;28;113462;-63
2021/09/23 02:41:54;;;;;;;24.77;12.98;;;;;;;14.79;54.09;102064.53;4956752;28;113098;-63
2021/09/23 02:44:22;;;;;;;20.65;11.60;;;;;;;14.79;53.83;102069.84;4956712;28;123512;-63
2021/09/23 02:46:49;;;;;;;19.67;11.73;;;;;;;14.77;53.97;102056.59;4956714;28;122890;-61
2021/09/23 02:49:17;;;;;;;20.08;11.90;;;;;;;14.76;53.94;102051.31;4971035;28;114397;-61
2021/09/23 02:51:44;;;;;;;20.88;11.48;;;;;;;14.74;54.10;102039.84;4954178;28;113843;-63
2021/09/23 02:54:11;;;;;;;23.45;11.90;;;;;;;14.72;54.14;102026.56;4951373;28;123266;-62
2021/09/23 02:56:39;;;;;;;20.15;11.43;;;;;;;14.70;54.02;102022.25;4966281;28;124523;-62
2021/09/23 02:59:06;;;;;;;21.42;11.45;;;;;;;14.67;54.11;102017.91;4948534;28;114113;-62
2021/09/23 03:01:33;;;;;;;23.60;12.52;;;;;;;14.64;54.25;102003.84;4956779;28;113337;-64
2021/09/23 03:04:01;;;;;;;20.90;12.18;;;;;;;14.63;54.25;102007.44;4933872;28;123933;-62
2021/09/23 03:06:28;;;;;;;23.65;12.57;;;;;;;14.61;54.37;102010.16;4957553;28;122824;-62
2021/09/23 03:08:55;;;;;;;20.88;11.57;;;;;;;14.59;54.34;102010.22;4945596;28;114323;-62
2021/09/23 03:11:22;;;;;;;19.63;11.80;;;;;;;14.59;54.51;101996.91;4956534;28;112847;-62
2021/09/23 03:13:50;;;;;;;25.60;12.88;;;;;;;14.58;54.63;101997.84;4953584;28;123126;-62
2021/09/23 03:16:17;;;;;;;21.35;12.25;;;;;;;14.58;54.67;101995.19;4947062;28;123040;-62
2021/09/23 03:18:46;;;;;;;24.25;12.57;;;;;;;14.59;54.53;101983.56;4965287;28;114076;-62
2021/09/23 03:21:13;;;;;;;21.13;11.88;;;;;;;14.59;54.68;101988.91;4945734;28;113114;-63
2021/09/23 03:23:40;;;;;;;22.20;12.25;;;;;;;14.58;54.68;101989.84;4956201;28;122915;-64
2021/09/23 03:26:09;;;;;;;23.63;12.75;;;;;;;14.57;54.74;101990.78;4972593;28;124770;-62
2021/09/23 03:28:36;;;;;;;26.00;13.02;;;;;;;14.56;54.73;101989.03;4954993;28;113308;-62
2021/09/23 03:31:03;;;;;;;21.52;12.63;;;;;;;14.54;54.87;101980.22;4968376;28;114397;-62
2021/09/23 03:33:31;;;;;;;21.25;12.38;;;;;;;14.54;54.93;101980.22;4951731;28;123454;-62
2021/09/23 03:35:58;;;;;;;22.10;12.20;;;;;;;14.53;54.97;101982.94;4947658;28;122346;-62
2021/09/23 03:38:26;;;;;;;21.52;12.52;;;;;;;14.52;54.95;101982.09;4947329;28;114217;-62
2021/09/23 03:40:53;;;;;;;23.23;12.65;;;;;;;14.52;55.03;101976.75;4967584;28;115063;-63
2021/09/23 03:43:20;;;;;;;22.70;12.48;;;;;;;14.52;55.07;101975.88;4951279;28;124172;-63
2021/09/23 03:45:49;;;;;;;22.13;12.57;;;;;;;14.52;55.16;101973.22;4951778;28;123723;-62
2021/09/23 03:48:20;;;;;;;22.55;12.43;;;;;;;14.53;55.06;101966.97;4966044;28;114481;-62
2021/09/23 03:50:48;;;;;;;23.60;12.02;;;;;;;14.54;55.23;101969.56;4952506;28;113679;-63
2021/09/23 03:53:16;;;;;;;26.40;12.77;;;;;;;14.55;55.17;101971.28;4948013;28;123370;-63
2021/09/23 03:55:44;;;;;;;22.30;12.02;;;;;;;14.56;55.23;101978.34;4967585;28;124177;-63
2021/09/23 03:58:11;;;;;;;22.38;12.50;;;;;;;14.56;55.12;101977.47;4952461;28;113917;-63
2021/09/23 04:00:38;;;;;;;24.67;12.85;;;;;;;14.57;55.15;101979.25;4960605;28;114214;-63
2021/09/23 04:03:06;;;;;;;21.17;12.20;;;;;;;14.56;55.13;101978.34;4952273;28;122795;-63
2021/09/23 04:05:33;;;;;;;24.23;12.27;;;;;;;14.55;55.33;101976.59;4968565;28;124773;-63
2021/09/23 04:08:03;;;;;;;22.70;12.63;;;;;;;14.55;55.29;101981.94;4946714;28;113226;-63
2021/09/23 04:10:31;;;;;;;25.42;13.02;;;;;;;14.54;55.15;101984.66;4963565;28;114508;-63
2021/09/23 04:12:58;;;;;;;23.98;12.70;;;;;;;14.52;55.26;101971.44;4952322;28;122122;-63
2021/09/23 04:15:26;;;;;;;26.33;12.40;;;;;;;14.51;55.27;101975.00;4948799;28;123139;-63
2021/09/23 04:17:58;;;;;;;22.85;12.48;;;;;;;14.50;55.31;101967.06;4949185;28;114255;-63
2021/09/23 04:20:26;;;;;;;21.17;12.45;;;;;;;14.50;55.25;101967.94;4967483;28;114441;-63
2021/09/23 04:22:54;;;;;;;20.65;11.70;;;;;;;14.50;55.34;101973.28;4949904;28;123179;-63
2021/09/23 04:25:22;;;;;;;24.67;12.98;;;;;;;14.48;55.33;101980.47;4955400;28;123428;-63
2021/09/23 04:27:52;;;;;;;24.83;12.15;;;;;;;14.47;55.43;101973.41;4955051;28;114719;-63
2021/09/23 04:30:19;;;;;;;24.83;12.38;;;;;;;14.47;55.48;101984.09;4963053;28;115618;-63
2021/09/23 04:32:46;;;;;;;26.48;13.20;;;;;;;14.45;55.43;101983.28;4952235;28;123054;-63
2021/09/23 04:35:14;;;;;;;28.38;12.70;;;;;;;14.43;55.47;101979.81;4966964;28;123010;-63
2021/09/23 04:37:41;;;;;;;24.30;12.73;;;;;;;14.43;55.52;101982.50;4955600;28;114216;-63
2021/09/23 04:40:09;;;;;;;22.23;12.90;;;;;;;14.41;55.53;101989.69;4963141;28;114318;-64
2021/09/23 04:42:41;;;;;;;27.02;13.27;;;;;;;14.39;55.74;101991.53;4949664;28;124117;-63
2021/09/23 04:45:10;;;;;;;23.42;12.25;;;;;;;14.38;55.63;101984.47;4952207;28;122982;-63
2021/09/23 04:47:43;;;;;;;24.20;12.57;;;;;;;14.36;55.73;101981.00;4953278;28;117371;-63
2021/09/23 04:50:11;;;;;;;26.00;13.52;;;;;;;14.34;55.46;101990.88;4953531;28;114394;-63
2021/09/23 04:52:38;;;;;;;23.48;12.50;;;;;;;14.32;55.73;101990.94;4969475;28;124148;-63
2021/09/23 04:55:13;;;;;;;24.80;12.90;;;;;;;14.31;55.76;101988.31;4954284;28;122820;-63
2021/09/23 04:57:40;;;;;;;24.95;13.15;;;;;;;14.31;55.62;101983.00;4967522;28;114448;-63
2021/09/23 05:00:09;;;;;;;23.90;12.60;;;;;;;14.29;55.82;101975.06;4954240;28;113252;-63
2021/09/23 05:02:46;;;;;;;23.98;12.80;;;;;;;14.28;55.69;101972.44;4954674;28;127054;-62
2021/09/23 05:05:14;;;;;;;26.65;14.30;;;;;;;14.28;55.77;101964.47;4970071;28;124373;-63
2021/09/23 05:07:42;;;;;;;24.65;12.68;;;;;;;14.27;55.88;101960.94;4952872;28;113418;-63
2021/09/23 05:10:10;;;;;;;26.75;13.18;;;;;;;14.26;55.87;101963.66;4951745;28;113289;-63
2021/09/23 05:12:42;;;;;;;25.30;13.63;;;;;;;14.25;55.54;101945.97;4951083;28;123339;-63
2021/09/23 05:15:12;;;;;;;24.25;13.43;;;;;;;14.24;55.95;101944.22;4970691;28;124305;-63
2021/09/23 05:17:40;;;;;;;28.92;13.52;;;;;;;14.21;55.95;101943.41;4947957;28;113311;-63
2021/09/23 05:20:09;;;;;;;20.92;11.98;;;;;;;14.20;56.06;101936.38;4951383;28;113998;-63
2021/09/23 05:22:38;;;;;;;24.77;13.15;;;;;;;14.21;56.02;101932.75;4951647;28;123987;-62
2021/09/23 05:25:05;;;;;;;27.27;13.30;;;;;;;14.20;55.84;101939.03;4968285;28;124983;-62
2021/09/23 05:27:33;;;;;;;27.95;13.88;;;;;;;14.19;56.30;101931.97;4969207;28;114626;-62
2021/09/23 05:30:00;;;;;;;24.58;13.02;;;;;;;14.19;56.18;101915.97;4950865;28;113235;-62
2021/09/23 05:32:27;;;;;;;26.45;13.93;;;;;;;14.19;56.33;101913.31;4964027;28;124170;-62
2021/09/23 05:34:54;;;;;;;27.50;14.20;;;;;;;14.21;56.40;101907.91;4969415;28;123818;-62
2021/09/23 05:37:22;;;;;;;26.00;13.40;;;;;;;14.23;56.42;101905.19;4951426;28;114962;-62
2021/09/23 05:39:51;;;;;;;26.58;13.55;;;;;;;14.24;56.48;101904.25;4965817;28;113337;-63
2021/09/23 05:42:18;;;;;;;25.38;14.18;;;;;;;14.25;56.54;101892.66;4955507;28;122931;-62
2021/09/23 05:44:46;;;;;;;25.67;13.73;;;;;;;14.26;56.54;101899.72;4964223;28;123897;-62
2021/09/23 05:47:13;;;;;;;29.05;14.52;;;;;;;14.28;56.42;101897.84;4966218;28;112912;-62
2021/09/23 05:49:41;;;;;;;27.85;14.57;;;;;;;14.30;56.57;101896.00;4968434;28;113434;-62
2021/09/23 05:52:08;;;;;;;25.98;13.55;;;;;;;14.31;56.64;101897.72;4967545;28;124094;-63
2021/09/23 05:54:36;;;;;;;27.20;14.02;;;;;;;14.35;56.80;101893.97;4970828;28;124333;-63
2021/09/23 05:57:05;;;;;;;29.52;14.85;;;;;;;14.38;56.99;101893.84;4941790;28;113460;-63
2021/09/23 05:59:33;;;;;;;29.05;14.63;;;;;;;14.43;56.89;101896.31;4950635;28;113243;-63
2021/09/23 06:02:01;;;;;;;30.05;14.65;;;;;;;14.46;57.07;101889.03;4942860;28;124472;-63
2021/09/23 06:04:28;;;;;;;30.23;14.88;;;;;;;14.51;56.97;101889.72;4950808;28;122827;-63
2021/09/23 06:06:56;;;;;;;29.30;15.52;;;;;;;14.55;57.01;101885.09;4965229;28;115009;-63
2021/09/23 06:09:23;;;;;;;28.17;14.38;;;;;;;14.59;57.03;101878.72;4950070;28;114559;-63
2021/09/23 06:11:50;;;;;;;25.77;12.82;;;;;;;14.63;56.93;101879.47;4945427;28;123940;-63
2021/09/23 06:14:17;;;;;;;27.83;13.85;;;;;;;14.67;56.97;101878.38;4960473;28;124715;-62
2021/09/23 06:16:44;;;;;;;29.13;14.57;;;;;;;14.70;57.08;101878.25;4947605;28;113047;-63
2021/09/23 06:19:12;;;;;;;24.77;13.95;;;;;;;14.74;57.07;101871.84;4969013;28;113908;-62
2021/09/23 06:21:40;;;;;;;28.23;14.27;;;;;;;14.79;56.99;101883.16;4968701;28;123865;-62
2021/09/23 06:24:08;;;;;;;25.70;14.10;;;;;;;14.83;57.15;101878.56;4971795;28;124067;-62
2021/09/23 06:26:35;;;;;;;28.00;13.93;;;;;;;14.87;57.07;101873.00;4971847;28;115077;-63
2021/09/23 06:29:02;;;;;;;26.48;13.80;;;;;;;14.93;57.20;101880.69;4954261;28;113766;-63
2021/09/23 06:31:32;;;;;;;26.55;13.88;;;;;;;14.99;57.22;101872.44;4960062;28;123965;-63
2021/09/23 06:34:02;;;;;;;27.05;14.02;;;;;;;15.09;57.27;101872.00;4955735;28;123247;-63
2021/09/23 06:36:34;;;;;;;24.70;13.60;;;;;;;15.19;57.34;101870.59;4963497;28;113955;-63
2021/09/23 06:39:03;;;;;;;27.58;13.90;;;;;;;15.28;57.34;101878.19;4973373;28;114035;-62
2021/09/23 06:41:31;;;;;;;25.67;14.48;;;;;;;15.40;57.47;101878.53;4972314;28;124585;-63
2021/09/23 06:44:02;;;;;;;23.80;13.80;;;;;;;15.51;57.29;101871.72;4957999;28;124377;-63
2021/09/23 06:46:30;;;;;;;26.48;13.68;;;;;;;15.66;57.37;101885.25;4970958;28;114246;-63
2021/09/23 06:48:57;;;;;;;24.85;13.52;;;;;;;15.80;57.22;101888.09;4973419;28;114602;-63
2021/09/23 06:51:25;;;;;;;26.58;13.18;;;;;;;15.92;57.19;101875.97;4962201;28;123873;-63
2021/09/23 06:54:07;;;;;;;27.60;12.55;;;;;;;16.04;57.10;101869.97;4974079;28;124097;-63
2021/09/23 06:56:35;;;;;;;24.33;13.05;;;;;;;16.14;56.95;101873.91;4962797;28;114061;-63
2021/09/23 06:59:02;;;;;;;24.75;13.32;;;;;;;16.24;56.81;101876.09;4972242;28;115771;-63
2021/09/23 07:01:32;;;;;;;26.15;13.65;;;;;;;16.34;56.86;101872.84;4974150;28;124694;-63
2021/09/23 07:04:09;;;;;;;24.10;13.98;;;;;;;16.46;56.89;101866.00;4975416;28;124479;-63
2021/09/23 07:07:01;;;;;;;23.60;13.50;;;;;;;16.60;56.72;101865.25;4945427;28;113743;-63
2021/09/23 07:09:33;;;;;;;24.33;13.18;;;;;;;16.72;56.76;101866.38;4954675;28;113589;-63
2021/09/23 07:12:03;;;;;;;26.90;14.40;;;;;;;16.84;56.77;101871.13;4958539;28;123210;-63
2021/09/23 07:14:30;;;;;;;24.63;13.43;;;;;;;16.96;56.50;101879.41;4960402;28;123056;-63
2021/09/23 07:16:57;;;;;;;25.27;13.68;;;;;;;17.04;56.48;101877.16;4957495;28;114349;-63
2021/09/23 07:19:25;;;;;;;26.65;14.40;;;;;;;17.10;56.59;101876.81;4965292;28;113048;-62
2021/09/23 07:21:55;;;;;;;28.85;14.85;;;;;;;17.21;56.66;101889.59;4970765;28;124710;-63
2021/09/23 07:24:23;;;;;;;24.63;13.32;;;;;;;17.30;56.44;101884.59;4968107;28;123199;-62
2021/09/23 07:26:51;;;;;;;24.52;14.15;;;;;;;17.40;56.30;101878.72;4969383;28;113299;-63
2021/09/23 07:29:18;;;;;;;25.73;13.65;;;;;;;17.48;56.15;101876.47;4959480;28;113105;-62
2021/09/23 07:31:45;;;;;;;24.30;13.98;;;;;;;17.54;56.17;101876.13;4956018;28;123107;-62
2021/09/23 07:34:13;;;;;;;25.33;14.80;;;;;;;17.59;56.17;101868.66;4956230;28;122852;-62
2021/09/23 07:36:40;;;;;;;25.25;14.77;;;;;;;17.66;56.20;101864.66;4954387;28;113317;-62
2021/09/23 07:39:09;;;;;;;27.85;15.15;;;;;;;17.71;55.91;101857.22;4966195;28;114029;-63
2021/09/23 07:41:38;;;;;;;22.73;13.75;;;;;;;17.77;55.99;101844.44;4965060;28;124797;-62
2021/09/23 07:44:06;;;;;;;25.30;15.02;;;;;;;17.82;56.12;101826.25;4954494;28;124633;-62
2021/09/23 07:46:35;;;;;;;25.30;13.77;;;;;;;17.87;56.24;101834.91;4947496;28;114802;-62
2021/09/23 07:49:04;;;;;;;25.90;15.10;;;;;;;17.97;56.27;101836.09;4966060;28;115345;-62
2021/09/23 07:51:32;;;;;;;27.05;14.98;;;;;;;18.06;55.96;101840.03;4966644;28;124365;-62
2021/09/23 07:53:59;;;;;;;29.00;15.00;;;;;;;18.13;56.09;101840.53;4954275;28;123510;-62
2021/09/23 07:56:27;;;;;;;26.65;15.13;;;;;;;18.20;56.23;101849.94;4952720;28;113288;-62
2021/09/23 07:58:54;;;;;;;27.38;14.75;;;;;;;18.29;56.07;101838.63;4966839;28;114408;-62
2021/09/23 08:01:21;;;;;;;25.30;14.70;;;;;;;18.40;55.97;101832.59;4949070;28;123134;-62
2021/09/23 08:03:54;;;;;;;27.17;15.02;;;;;;;18.47;55.88;101824.06;4945986;28;123188;-62
2021/09/23 08:06:23;;;;;;;27.90;15.93;;;;;;;18.54;56.05;101818.31;4953139;28;113872;-62
2021/09/23 08:08:50;;;;;;;24.17;15.05;;;;;;;18.63;56.01;101823.09;4949556;28;113031;-62
2021/09/23 08:11:18;;;;;;;23.52;14.25;;;;;;;18.74;56.06;101825.09;4947222;28;123358;-62
2021/09/23 08:13:48;;;;;;;26.10;14.95;;;;;;;18.83;56.14;101806.59;4945310;28;123115;-62
2021/09/23 08:16:18;;;;;;;23.85;14.60;;;;;;;18.92;55.92;101796.25;4952272;28;113341;-62
2021/09/23 08:19:15;;;;;;;24.85;14.60;;;;;;;19.02;55.77;101789.31;4956203;28;114168;-62
2021/09/23 08:22:06;;;;;;;26.38;14.95;;;;;;;19.12;56.20;101793.13;4962151;28;124070;-62
2021/09/23 08:24:34;;;;;;;27.02;14.18;;;;;;;19.22;56.07;101794.22;4967294;28;124801;-62
2021/09/23 08:27:02;;;;;;;26.95;15.07;;;;;;;19.34;56.14;101797.91;4938890;28;114351;-63
2021/09/23 08:29:29;;;;;;;26.58;15.73;;;;;;;19.44;56.26;101792.78;4956772;28;114252;-62
2021/09/23 08:31:57;;;;;;;27.42;15.73;;;;;;;19.53;56.15;101781.41;4945139;28;123257;-62
2021/09/23 08:34:25;;;;;;;26.25;14.77;;;;;;;19.63;56.17;101776.28;4942464;28;121961;-63
2021/09/23 08:36:53;;;;;;;27.10;14.35;;;;;;;19.73;56.08;101772.00;4944725;28;114499;-64
2021/09/23 08:39:20;;;;;;;24.42;14.32;;;;;;;19.82;56.06;101759.78;4961935;28;114945;-64
2021/09/23 08:41:49;;;;;;;24.33;14.32;;;;;;;19.91;56.19;101766.31;4939683;28;122920;-63
2021/09/23 08:44:19;;;;;;;23.45;13.52;;;;;;;20.01;56.23;101760.19;4961703;28;123134;-64
2021/09/23 08:46:47;;;;;;;23.05;13.52;;;;;;;20.12;56.14;101758.59;4981057;28;115213;-64
2021/09/23 08:49:14;;;;;;;22.88;13.55;;;;;;;20.21;55.98;101760.59;4956174;28;113228;-64
2021/09/23 08:51:46;;;;;;;23.60;14.10;;;;;;;20.28;55.86;101761.91;4960218;28;122989;-64
2021/09/23 08:54:17;;;;;;;24.58;13.60;;;;;;;20.34;55.65;101774.94;4953129;28;124036;-64
2021/09/23 08:56:45;;;;;;;20.65;13.02;;;;;;;20.42;55.66;101777.91;4945511;28;113744;-64
2021/09/23 08:59:12;;;;;;;22.88;13.77;;;;;;;20.53;55.83;101793.31;4947393;28;112870;-64
2021/09/23 09:01:50;;;;;;;24.50;13.77;;;;;;;20.63;55.59;101787.28;4950154;28;123416;-62
2021/09/23 09:04:32;;;;;;;22.73;13.13;;;;;;;20.71;55.52;101785.75;4949298;28;123500;-62
2021/09/23 09:07:30;;;;;;;22.77;13.18;;;;;;;20.82;55.32;101776.03;4971709;28;114280;-63
2021/09/23 09:10:25;;;;;;;22.77;12.45;;;;;;;20.92;55.25;101788.69;4948374;28;114914;-63
2021/09/23 09:12:53;;;;;;;21.35;12.38;;;;;;;20.99;55.17;101794.50;4969064;28;123764;-63
2021/09/23 09:15:32;;;;;;;21.45;12.10;;;;;;;21.08;55.20;101804.59;4943738;28;122739;-63
2021/09/23 09:18:14;;;;;;;20.52;12.02;;;;;;;21.15;55.12;101795.06;4964048;28;113923;-62
2021/09/23 09:20:55;;;;;;;16.65;11.13;;;;;;;21.19;54.78;101796.56;4965934;28;113292;-63
2021/09/23 09:23:27;;;;;;;20.50;11.73;;;;;;;21.22;54.38;101800.00;4949299;28;123851;-62
2021/09/23 09:25:54;;;;;;;19.00;11.32;;;;;;;21.21;54.29;101804.53;4964830;28;123208;-62
2021/09/23 09:28:22;;;;;;;19.25;11.40;;;;;;;21.22;54.01;101792.75;4958924;28;114329;-62
2021/09/23 09:30:54;;;;;;;18.52;11.32;;;;;;;21.22;54.19;101800.00;4950679;28;114507;-62
2021/09/23 09:33:34;;;;;;;21.10;12.15;;;;;;;21.19;54.11;101791.16;4965750;28;124772;-62
2021/09/23 09:36:03;;;;;;;17.92;11.32;;;;;;;21.23;54.22;101781.03;4954016;28;123627;-63
2021/09/23 09:38:33;;;;;;;17.95;11.90;;;;;;;21.30;54.31;101786.78;4946972;28;113905;-63
2021/09/23 09:41:02;;;;;;;19.60;11.88;;;;;;;21.40;54.24;101782.44;4954110;28;113284;-63
2021/09/23 09:43:31;;;;;;;19.65;12.18;;;;;;;21.46;54.01;101775.75;4949224;28;122975;-63
2021/09/23 09:45:59;;;;;;;17.98;11.98;;;;;;;21.49;53.90;101773.69;4948398;28;124554;-63
2021/09/23 09:48:29;;;;;;;18.58;11.57;;;;;;;21.57;53.89;101779.34;4963297;28;113547;-63
2021/09/23 09:51:01;;;;;;;19.15;12.27;;;;;;;21.67;53.67;101779.50;4946914;28;113069;-63
2021/09/23 09:53:29;;;;;;;20.00;12.35;;;;;;;21.77;53.56;101774.25;4947211;28;124145;-62
2021/09/23 09:55:56;;;;;;;21.38;12.23;;;;;;;21.85;53.58;101774.53;4950224;28;123102;-63
2021/09/23 09:58:24;;;;;;;19.40;11.68;;;;;;;21.95;53.47;101775.50;4968008;28;114486;-64
2021/09/23 10:00:52;;;;;;;18.92;11.93;;;;;;;22.02;53.29;101756.13;4963238;28;113323;-64
2021/09/23 10:03:20;;;;;;;17.55;10.57;;;;;;;22.03;53.04;101757.84;4966185;28;124526;-64
2021/09/23 10:05:48;;;;;;;19.35;11.52;;;;;;;22.04;52.96;101764.97;4951482;28;123089;-64
2021/09/23 10:08:19;;;;;;;15.32;10.75;;;;;;;22.06;52.93;101763.03;4957069;28;113723;-64
2021/09/23 10:10:49;;;;;;;15.07;10.80;;;;;;;22.08;52.38;101766.47;4957864;28;113282;-64
2021/09/23 10:13:19;;;;;;;14.57;9.88;;;;;;;22.06;52.24;101758.47;4955409;28;123163;-64
2021/09/23 10:15:47;;;;;;;16.65;10.10;;;;;;;22.05;52.11;101755.91;4957591;28;122937;-64
2021/09/23 10:18:15;;;;;;;16.75;10.18;;;;;;;22.04;52.17;101752.34;4960442;28;115271;-64
2021/09/23 10:20:49;;;;;;;18.27;10.20;;;;;;;22.09;52.27;101757.38;4972945;28;115193;-64
2021/09/23 10:23:16;;;;;;;16.70;10.45;;;;;;;22.11;51.92;101750.00;4957508;28;124023;-64
2021/09/23 10:25:53;;;;;;;16.38;11.05;;;;;;;22.12;51.62;101747.19;4966576;28;123066;-64
2021/09/23 10:28:21;;;;;;;14.88;10.20;;;;;;;22.10;51.56;101742.91;4957574;28;113660;-64
2021/09/23 10:30:48;;;;;;;17.20;10.00;;;;;;;22.08;51.51;101744.88;4957429;28;113330;-63
2021/09/23 10:33:19;;;;;;;17.52;9.43;;;;;;;22.04;51.29;101737.97;4957344;28;123320;-63
2021/09/23 10:35:49;;;;;;;15.10;10.00;;;;;;;22.00;51.24;101747.28;4963931;28;123014;-63
2021/09/23 10:38:24;;;;;;;13.60;9.45;;;;;;;22.00;51.56;101747.28;4954337;28;116248;-63
2021/09/23 10:40:51;;;;;;;16.27;9.48;;;;;;;22.03;51.55;101755.16;4963746;28;113216;-63
2021/09/23 10:43:19;;;;;;;15.95;10.88;;;;;;;22.08;51.58;101744.88;4946963;28;123438;-63
2021/09/23 10:45:52;;;;;;;15.70;9.88;;;;;;;22.15;51.68;101751.47;4955087;28;123203;-64
2021/09/23 10:48:22;;;;;;;14.52;10.02;;;;;;;22.24;51.59;101750.75;4954331;28;113513;-63
2021/09/23 10:50:50;;;;;;;17.48;10.38;;;;;;;22.32;51.74;101748.34;4972071;28;113029;-63
2021/09/23 10:53:18;;;;;;;15.82;10.27;;;;;;;22.40;51.50;101738.78;4969594;28;123199;-63
2021/09/23 10:56:05;;;;;;;14.57;10.13;;;;;;;22.46;51.36;101732.88;4958358;28;123072;-64
2021/09/23 10:58:39;;;;;;;14.43;9.98;;;;;;;22.49;51.13;101727.19;4941524;28;118091;-63
2021/09/23 11:01:19;;;;;;;14.55;9.68;;;;;;;22.49;51.07;101732.59;4957465;28;112966;-63
2021/09/23 11:03:49;;;;;;;12.48;8.27;;;;;;;22.50;51.01;101737.03;4956909;28;123244;-64
2021/09/23 11:06:18;;;;;;;13.32;9.02;;;;;;;22.53;51.21;101742.19;4956594;28;122957;-63
2021/09/23 11:08:47;;;;;;;12.57;8.27;;;;;;;22.61;50.88;101737.00;4973041;28;115298;-63
2021/09/23 11:11:20;;;;;;;10.60;6.75;;;;;;;22.66;50.66;101745.59;4952636;28;113973;-63
2021/09/23 11:13:48;;;;;;;10.60;6.90;;;;;;;22.68;50.52;101746.31;4967924;28;124239;-63